Terminal Aerodrome Forecast
Issued by NWS

Home | Current Version | Previous Version | Text Only | Print | Product List | Glossary Off
Versions: 1 2 3 4 5 6 7 8 9 10 11 12 13 14 15 16 17 18 19 20 21 22 23

000
FTUS41 KCLE 270901 AAA
TAFFDY
TAF AMD
KFDY 270901Z 2709/2806 05014KT P6SM OVC013
      TEMPO 2710/2712 OVC008
     FM271300 06012KT P6SM BKN014
     FM271600 07014G22KT P6SM SCT025
     FM280300 06012KT P6SM VCSH BKN040=

USA.gov is the U.S. government's official web portal to all federal, state and local government web resources and services.